createdAt,value
2018-03-15T00:00:53.675Z,98876.22
2018-03-15T00:03:26.920Z,98883.02
2018-03-15T00:05:54.524Z,98879.98
2018-03-15T00:08:22.050Z,98881.02
2018-03-15T00:10:49.579Z,98874.67
2018-03-15T00:13:17.151Z,98879.62
2018-03-15T00:15:44.722Z,98880.18
2018-03-15T00:18:12.548Z,98878.87
2018-03-15T00:20:40.083Z,98875.13
2018-03-15T00:23:07.657Z,98874.23
2018-03-15T00:25:35.186Z,98877.61
2018-03-15T00:28:02.755Z,98869.80
2018-03-15T00:30:30.292Z,98876.20
2018-03-15T00:32:57.872Z,98865.58
2018-03-15T00:35:25.924Z,98865.77
2018-03-15T00:37:53.458Z,98873.86
2018-03-15T00:40:20.990Z,98868.34
2018-03-15T00:42:49.045Z,98862.08
2018-03-15T00:45:16.592Z,98862.78
2018-03-15T00:47:44.172Z,98862.49
2018-03-15T00:50:12.648Z,98863.80
2018-03-15T00:52:40.402Z,98865.16
2018-03-15T00:55:09.300Z,98861.17
2018-03-15T00:57:36.839Z,98860.33
2018-03-15T01:00:04.395Z,98861.34
2018-03-15T01:02:32.146Z,98854.42
2018-03-15T01:04:59.674Z,98859.48
2018-03-15T01:07:27.252Z,98861.62
2018-03-15T01:09:54.944Z,98858.02
2018-03-15T01:12:22.495Z,98855.67
2018-03-15T01:14:50.036Z,98853.24
2018-03-15T01:17:18.840Z,98854.41
2018-03-15T01:19:47.047Z,98852.67
2018-03-15T01:22:14.623Z,98860.05
2018-03-15T01:24:42.157Z,98862.80
2018-03-15T01:27:10.547Z,98856.88
2018-03-15T01:29:38.127Z,98860.77
2018-03-15T01:32:06.133Z,98865.48
2018-03-15T01:34:33.702Z,98863.39
2018-03-15T01:37:01.252Z,98864.02
2018-03-15T01:39:28.813Z,98870.89
2018-03-15T01:41:56.746Z,98868.94
2018-03-15T01:44:24.288Z,98870.70
2018-03-15T01:46:51.867Z,98866.75
2018-03-15T01:49:19.403Z,98869.74
2018-03-15T01:51:46.988Z,98861.73
2018-03-15T01:54:14.819Z,98862.38
2018-03-15T01:56:42.350Z,98859.31
2018-03-15T01:59:10.792Z,98864.18
2018-03-15T02:01:38.371Z,98860.05
2018-03-15T02:04:06.310Z,98861.19
2018-03-15T02:06:33.878Z,98861.80
2018-03-15T02:09:01.459Z,98862.45
2018-03-15T02:11:28.996Z,98861.66
2018-03-15T02:13:56.541Z,98859.09
2018-03-15T02:16:24.370Z,98860.44
2018-03-15T02:18:51.964Z,98860.19
2018-03-15T02:21:20.362Z,98864.04
2018-03-15T02:23:47.890Z,98860.67
2018-03-15T02:26:15.476Z,98864.89
2018-03-15T02:28:43.222Z,98869.19
2018-03-15T02:31:10.809Z,98868.67
2018-03-15T02:33:38.407Z,98868.71
2018-03-15T02:36:05.951Z,98870.58
2018-03-15T02:38:33.488Z,98869.22
2018-03-15T02:41:01.446Z,98875.48
2018-03-15T02:43:28.977Z,98868.33
2018-03-15T02:45:56.554Z,98866.80
2018-03-15T02:48:24.082Z,98867.31
2018-03-15T02:50:51.611Z,98871.15
2018-03-15T02:53:19.160Z,98866.19
2018-03-15T02:55:46.746Z,98868.41
2018-03-15T02:58:14.347Z,98869.11
2018-03-15T03:00:41.923Z,98869.53
2018-03-15T03:03:09.537Z,98869.30
2018-03-15T03:05:37.058Z,98868.64
2018-03-15T03:08:04.656Z,98870.54
2018-03-15T03:10:32.204Z,98876.66
2018-03-15T03:12:59.738Z,98873.16
2018-03-15T03:15:27.323Z,98875.23
2018-03-15T03:17:54.864Z,98874.39
2018-03-15T03:20:22.399Z,98873.60
2018-03-15T03:22:49.974Z,98883.86
2018-03-15T03:25:18.309Z,98883.48
2018-03-15T03:27:45.880Z,98887.57
2018-03-15T03:30:13.414Z,98890.58
2018-03-15T03:32:40.987Z,98892.37
2018-03-15T03:35:08.518Z,98884.73
2018-03-15T03:37:36.063Z,98886.10
2018-03-15T03:40:03.670Z,98886.03
2018-03-15T03:42:31.264Z,98889.86
2018-03-15T03:44:59.720Z,98891.51
2018-03-15T03:47:27.307Z,98892.14
2018-03-15T03:49:54.884Z,98891.47
2018-03-15T03:52:22.459Z,98882.91
2018-03-15T03:54:50.037Z,98889.89
2018-03-15T03:57:17.611Z,98894.53
2018-03-15T03:59:45.148Z,98895.54
2018-03-15T04:02:12.730Z,98893.39
2018-03-15T04:04:40.281Z,98893.34
2018-03-15T04:07:07.855Z,98891.05
2018-03-15T04:09:35.717Z,98892.44
2018-03-15T04:12:03.247Z,98893.35
2018-03-15T04:14:30.937Z,98893.05
2018-03-15T04:16:58.528Z,98900.12
2018-03-15T04:19:26.634Z,98894.30
2018-03-15T04:21:54.914Z,98898.91
2018-03-15T04:24:22.582Z,98898.03
2018-03-15T04:26:51.037Z,98897.94
2018-03-15T04:29:18.602Z,98896.96
2018-03-15T04:31:46.172Z,98904.73
2018-03-15T04:34:13.712Z,98904.98
2018-03-15T04:36:41.291Z,98900.98
2018-03-15T04:39:09.826Z,98903.91
2018-03-15T04:41:37.400Z,98905.40
2018-03-15T04:44:04.939Z,98907.92
2018-03-15T04:46:32.796Z,98908.27
2018-03-15T04:49:00.377Z,98909.67
2018-03-15T04:51:28.016Z,98914.91
2018-03-15T04:53:55.609Z,98918.84
2018-03-15T04:56:23.147Z,98921.30
2018-03-15T04:58:50.683Z,98925.14
2018-03-15T05:01:18.256Z,98922.18
2018-03-15T05:03:46.099Z,98925.06
2018-03-15T05:06:13.678Z,98929.38
2018-03-15T05:08:41.260Z,98930.52
2018-03-15T05:11:09.096Z,98937.87
2018-03-15T05:13:36.631Z,98938.83
2018-03-15T05:16:04.206Z,98941.75
2018-03-15T05:18:31.791Z,98940.19
2018-03-15T05:20:59.326Z,98941.57
2018-03-15T05:23:27.715Z,98942.01
2018-03-15T05:25:55.689Z,98943.06
2018-03-15T05:28:23.228Z,98949.99
2018-03-15T05:30:50.832Z,98938.70
2018-03-15T05:33:18.401Z,98942.47
2018-03-15T05:35:46.521Z,98947.58
2018-03-15T05:38:14.115Z,98949.60
2018-03-15T05:40:41.773Z,98951.66
2018-03-15T05:43:09.600Z,98954.53
2018-03-15T05:45:38.417Z,98963.56
2018-03-15T05:48:05.962Z,98971.97
2018-03-15T05:50:34.388Z,98964.16
2018-03-15T05:53:02.790Z,98971.80
2018-03-15T05:55:30.376Z,98980.02
2018-03-15T05:57:57.963Z,98975.51
2018-03-15T06:00:26.475Z,98980.56
2018-03-15T06:02:54.084Z,98984.44
2018-03-15T06:05:21.658Z,98987.47
2018-03-15T06:07:49.222Z,98995.89
2018-03-15T06:10:17.702Z,99006.59
2018-03-15T06:12:45.350Z,99004.95
2018-03-15T06:15:13.563Z,99004.50
2018-03-15T06:17:41.152Z,99008.91
2018-03-15T06:20:09.649Z,99011.91
2018-03-15T06:22:37.828Z,99020.26
2018-03-15T06:25:05.466Z,99028.61
2018-03-15T06:27:33.057Z,99024.70
2018-03-15T06:30:00.749Z,99026.51
2018-03-15T06:32:28.411Z,99031.13
2018-03-15T06:34:55.943Z,99031.97
2018-03-15T06:37:23.552Z,99042.56
2018-03-15T06:39:51.127Z,99042.38
2018-03-15T06:42:18.752Z,99041.30
2018-03-15T06:44:46.360Z,99042.81
2018-03-15T06:47:15.014Z,99038.02
2018-03-15T06:49:43.903Z,99047.63
2018-03-15T06:52:12.422Z,99048.19
2018-03-15T06:54:40.060Z,99047.73
2018-03-15T06:57:07.634Z,99050.27
2018-03-15T06:59:35.249Z,99048.33
2018-03-15T07:02:02.832Z,99052.95
2018-03-15T07:04:30.479Z,99049.50
2018-03-15T07:06:58.023Z,99055.25
2018-03-15T07:09:26.441Z,99059.51
2018-03-15T07:11:54.038Z,99059.14
2018-03-15T07:14:21.590Z,99052.76
2018-03-15T07:16:49.185Z,99061.12
2018-03-15T07:19:16.780Z,99059.75
2018-03-15T07:21:44.335Z,99063.37
2018-03-15T07:24:11.922Z,99059.70
2018-03-15T07:26:39.522Z,99065.03
2018-03-15T07:29:07.143Z,99062.52
2018-03-15T07:31:34.724Z,99058.52
2018-03-15T07:34:02.307Z,99057.02
2018-03-15T07:36:29.843Z,99055.39
2018-03-15T07:38:57.431Z,99059.31
2018-03-15T07:41:25.024Z,99056.44
2018-03-15T07:43:52.562Z,99049.69
2018-03-15T07:46:20.143Z,99054.22
2018-03-15T07:48:48.667Z,99052.45
2018-03-15T07:51:16.224Z,99050.58
2018-03-15T07:53:43.810Z,99051.95
2018-03-15T07:56:11.459Z,99058.12
2018-03-15T07:58:38.994Z,99057.13
2018-03-15T08:01:07.512Z,99055.33
2018-03-15T08:03:35.142Z,99060.60
2018-03-15T08:06:02.747Z,99063.48
2018-03-15T08:08:30.406Z,99057.48
2018-03-15T08:10:57.983Z,99057.13
2018-03-15T08:15:26.685Z,99062.95
2018-03-15T08:17:54.960Z,99060.23
2018-03-15T08:20:22.932Z,99059.28
2018-03-15T08:22:50.687Z,99064.48
2018-03-15T08:25:18.242Z,99058.20
2018-03-15T08:27:45.859Z,99052.61
2018-03-15T08:30:14.316Z,99047.55
2018-03-15T08:32:42.029Z,99044.89
2018-03-15T08:35:09.572Z,99049.16
2018-03-15T08:37:37.169Z,99042.64
2018-03-15T08:40:04.778Z,99041.46
2018-03-15T08:42:33.791Z,99041.52
2018-03-15T08:45:01.416Z,99038.23
2018-03-15T08:47:28.976Z,99040.22
2018-03-15T08:49:56.578Z,99045.84
2018-03-15T08:52:24.135Z,99048.06
2018-03-15T08:54:51.932Z,99053.75
2018-03-15T08:57:19.698Z,99052.62
2018-03-15T08:59:47.330Z,99056.80
2018-03-15T09:02:15.189Z,99054.34
2018-03-15T09:04:42.965Z,99052.42
2018-03-15T09:07:10.563Z,99054.41
2018-03-15T09:09:38.144Z,99051.23
2018-03-15T09:12:05.767Z,99047.57
2018-03-15T09:14:33.348Z,99054.58
2018-03-15T09:17:00.998Z,99054.62
2018-03-15T09:19:28.600Z,99058.66
2018-03-15T09:21:56.196Z,99051.94
2018-03-15T09:24:23.747Z,99062.55
2018-03-15T09:26:51.344Z,99050.95
2018-03-15T09:29:19.190Z,99054.14
2018-03-15T09:31:46.788Z,99057.02
2018-03-15T09:34:14.360Z,99054.72
2018-03-15T09:36:42.514Z,99048.13
2018-03-15T09:39:10.605Z,99057.23
2018-03-15T09:41:38.175Z,99049.97
2018-03-15T09:44:07.516Z,99056.63
2018-03-15T09:46:35.207Z,99041.73
2018-03-15T09:49:02.794Z,99047.83
2018-03-15T09:51:30.385Z,99050.33
2018-03-15T09:53:58.004Z,99041.61
2018-03-15T09:56:26.214Z,99033.48
2018-03-15T09:58:53.803Z,99030.16
2018-03-15T10:01:21.405Z,99031.38
2018-03-15T10:03:49.005Z,99026.30
2018-03-15T10:06:16.624Z,99017.67
2018-03-15T10:08:44.245Z,99016.44
2018-03-15T10:11:11.962Z,99022.95
2018-03-15T10:13:40.469Z,99011.42
2018-03-15T10:16:08.491Z,99016.69
2018-03-15T10:18:36.248Z,99008.53
2018-03-15T10:21:03.888Z,99013.16
2018-03-15T10:23:31.884Z,99005.63
2018-03-15T10:25:59.491Z,99000.02
2018-03-15T10:28:27.075Z,99001.34
2018-03-15T10:30:55.449Z,99000.98
2018-03-15T10:33:28.611Z,98994.98
2018-03-15T10:35:56.381Z,98998.73
2018-03-15T10:38:23.950Z,98992.27
2018-03-15T10:40:53.561Z,98990.04
2018-03-15T10:43:24.531Z,98987.52
2018-03-15T10:45:52.137Z,98979.99
2018-03-15T10:48:19.776Z,98982.86
2018-03-15T10:50:47.544Z,98974.02
2018-03-15T10:53:15.173Z,98970.95
2018-03-15T10:55:42.747Z,98970.02
2018-03-15T10:58:10.635Z,98965.27
2018-03-15T11:00:43.885Z,98962.88
2018-03-15T11:03:17.456Z,98964.78
2018-03-15T11:05:48.418Z,98954.38
2018-03-15T11:08:21.450Z,98955.02
2018-03-15T11:10:49.323Z,98953.98
2018-03-15T11:13:17.044Z,98946.10
2018-03-15T11:15:44.612Z,98943.45
2018-03-15T11:18:12.241Z,98941.94
2018-03-15T11:20:40.817Z,98936.58
2018-03-15T11:23:08.381Z,98934.30
2018-03-15T11:25:36.045Z,98934.86
2018-03-15T11:28:03.661Z,98931.98
2018-03-15T11:30:31.461Z,98923.91
2018-03-15T11:32:59.073Z,98924.30
2018-03-15T11:35:26.645Z,98931.66
2018-03-15T11:37:54.225Z,98928.20
2018-03-15T11:40:21.860Z,98925.42
2018-03-15T11:42:49.484Z,98922.55
2018-03-15T11:45:17.887Z,98923.36
2018-03-15T11:47:45.449Z,98917.27
2018-03-15T11:50:13.614Z,98917.84
2018-03-15T11:52:41.192Z,98920.95
2018-03-15T11:55:08.803Z,98914.16
2018-03-15T11:57:37.216Z,98911.23
2018-03-15T12:00:04.855Z,98916.65
2018-03-15T12:02:32.419Z,98903.70
2018-03-15T12:05:00.057Z,98906.31
2018-03-15T12:07:28.820Z,98905.50
2018-03-15T12:09:56.495Z,98896.50
2018-03-15T12:12:24.801Z,98894.95
2018-03-15T12:14:52.367Z,98893.91
2018-03-15T12:17:19.987Z,98891.66
2018-03-15T12:19:47.584Z,98889.13
2018-03-15T12:22:16.120Z,98883.03
2018-03-15T12:24:43.678Z,98885.30
2018-03-15T12:27:11.533Z,98880.56
2018-03-15T12:29:39.966Z,98875.00
2018-03-15T12:32:07.531Z,98881.92
2018-03-15T12:34:35.123Z,98886.78
2018-03-15T12:37:03.041Z,98880.45
2018-03-15T12:39:31.606Z,98877.17
2018-03-15T12:41:59.159Z,98883.13
2018-03-15T12:44:26.787Z,98880.18
2018-03-15T12:46:54.347Z,98880.37
2018-03-15T12:49:21.940Z,98879.88
2018-03-15T12:51:49.499Z,98878.66
2018-03-15T12:54:17.104Z,98880.13
2018-03-15T12:56:44.675Z,98883.08
2018-03-15T12:59:12.236Z,98884.27
2018-03-15T13:01:39.832Z,98885.23
2018-03-15T13:04:07.396Z,98887.53
2018-03-15T13:06:35.007Z,98884.41
2018-03-15T13:09:02.588Z,98879.76
2018-03-15T13:11:30.391Z,98878.73
2018-03-15T13:13:59.255Z,98880.29
2018-03-15T13:16:26.851Z,98877.27
2018-03-15T13:18:55.167Z,98883.59
2018-03-15T13:21:22.784Z,98875.22
2018-03-15T13:23:51.216Z,98873.96
2018-03-15T13:26:18.824Z,98865.78
2018-03-15T13:28:46.585Z,98865.17
2018-03-15T13:31:14.224Z,98864.12
2018-03-15T13:33:41.977Z,98869.77
2018-03-15T13:36:09.870Z,98867.76
2018-03-15T13:38:37.447Z,98873.06
2018-03-15T13:41:05.143Z,98873.59
2018-03-15T13:43:32.700Z,98878.48
2018-03-15T13:46:00.309Z,98881.78
2018-03-15T13:48:27.940Z,98878.80
2018-03-15T13:50:55.553Z,98878.48
2018-03-15T13:53:23.143Z,98881.08
2018-03-15T13:55:50.696Z,98877.23
2018-03-15T13:58:18.314Z,98879.11
2018-03-15T14:00:45.891Z,98873.95
2018-03-15T14:03:14.470Z,98878.44
2018-03-15T14:05:43.027Z,98876.95
2018-03-15T14:08:10.576Z,98880.61
2018-03-15T14:10:38.184Z,98877.64
2018-03-15T14:13:06.549Z,98885.84
2018-03-15T14:15:34.162Z,98881.44
2018-03-15T14:18:01.754Z,98883.77
2018-03-15T14:20:29.354Z,98880.03
2018-03-15T14:22:57.017Z,98887.45
2018-03-15T14:25:25.940Z,98888.20
2018-03-15T14:27:53.483Z,98892.30
2018-03-15T14:30:22.273Z,98891.16
2018-03-15T14:32:49.867Z,98897.48
2018-03-15T14:35:17.429Z,98897.17
2018-03-15T14:37:45.198Z,98892.16
2018-03-15T14:40:13.573Z,98897.73
2018-03-15T14:42:41.147Z,98898.33
2018-03-15T14:45:09.143Z,98899.00
2018-03-15T14:47:36.743Z,98902.60
2018-03-15T14:50:04.936Z,98900.23
2018-03-15T14:52:33.188Z,98901.77
2018-03-15T14:55:00.919Z,98900.25
2018-03-15T14:57:28.460Z,98900.67
2018-03-15T14:59:57.529Z,98905.21
2018-03-15T15:02:25.148Z,98899.44
2018-03-15T15:04:52.712Z,98903.19
2018-03-15T15:07:21.237Z,98898.70
2018-03-15T15:09:48.829Z,98901.05
2018-03-15T15:12:16.717Z,98891.59
2018-03-15T15:14:44.688Z,98900.97
2018-03-15T15:17:12.224Z,98900.06
2018-03-15T15:19:39.828Z,98895.47
2018-03-15T15:22:08.357Z,98891.22
2018-03-15T15:24:36.192Z,98887.81
2018-03-15T15:27:04.311Z,98892.84
2018-03-15T15:29:32.845Z,98894.42
2018-03-15T15:32:00.536Z,98892.33
2018-03-15T15:34:28.887Z,98901.58
2018-03-15T15:36:56.630Z,98897.49
2018-03-15T15:39:24.167Z,98897.30
2018-03-15T15:41:52.182Z,98905.13
2018-03-15T15:44:20.690Z,98908.20
2018-03-15T15:46:48.842Z,98904.02
2018-03-15T15:49:17.249Z,98907.23
2018-03-15T15:51:45.056Z,98904.88
2018-03-15T15:54:12.651Z,98901.73
2018-03-15T15:56:40.200Z,98909.25
2018-03-15T15:59:07.800Z,98906.13
2018-03-15T16:01:35.368Z,98905.70
2018-03-15T16:04:02.910Z,98908.22
2018-03-15T16:06:30.514Z,98909.55
2018-03-15T16:08:58.246Z,98917.72
2018-03-15T16:11:26.567Z,98923.08
2018-03-15T16:13:54.387Z,98927.75
2018-03-15T16:16:23.306Z,98928.83
2018-03-15T16:18:51.649Z,98936.25
2018-03-15T16:21:19.593Z,98944.08
2018-03-15T16:23:47.190Z,98940.87
2018-03-15T16:26:15.367Z,98944.80
2018-03-15T16:28:43.011Z,98948.55
2018-03-15T16:31:10.559Z,98952.84
2018-03-15T16:33:38.847Z,98951.01
2018-03-15T16:36:06.415Z,98957.84
2018-03-15T16:38:34.395Z,98961.36
2018-03-15T16:41:02.001Z,98959.62
2018-03-15T16:43:29.596Z,98961.06
2018-03-15T16:45:57.501Z,98964.83
2018-03-15T16:48:25.098Z,98966.81
2018-03-15T16:50:52.640Z,98969.49
2018-03-15T16:53:20.791Z,98969.61
2018-03-15T16:55:48.692Z,98966.21
2018-03-15T16:58:16.280Z,98971.10
2018-03-15T17:00:43.832Z,98963.26
2018-03-15T17:03:12.370Z,98961.36
2018-03-15T17:05:40.544Z,98959.63
2018-03-15T17:08:10.346Z,98962.38
2018-03-15T17:10:38.400Z,98961.73
2018-03-15T17:13:05.983Z,98965.57
2018-03-15T17:15:33.574Z,98969.38
2018-03-15T17:18:01.992Z,98975.07
2018-03-15T17:20:29.615Z,98973.47
2018-03-15T17:22:57.188Z,98972.20
2018-03-15T17:25:24.743Z,98969.69
2018-03-15T17:27:53.217Z,98985.09
2018-03-15T17:30:21.459Z,98996.83
2018-03-15T17:32:49.080Z,98994.45
2018-03-15T17:35:17.288Z,98989.10
2018-03-15T17:37:45.157Z,98992.14
2018-03-15T17:40:12.724Z,98996.19
2018-03-15T17:42:41.911Z,99000.84
2018-03-15T17:45:11.215Z,99002.34
2018-03-15T17:47:39.004Z,99003.89
2018-03-15T17:50:07.134Z,99000.75
2018-03-15T17:52:35.431Z,99003.95
2018-03-15T17:55:03.256Z,99009.10
2018-03-15T17:57:31.461Z,99006.34
2018-03-15T18:00:01.362Z,99012.17
2018-03-15T18:02:29.256Z,99019.30
2018-03-15T18:04:57.029Z,99025.28
2018-03-15T18:07:25.054Z,99025.15
2018-03-15T18:09:53.206Z,99022.31
2018-03-15T18:12:21.438Z,99024.27
2018-03-15T18:14:49.534Z,99024.68
2018-03-15T18:17:18.009Z,99029.42
2018-03-15T18:19:46.690Z,99036.95
2018-03-15T18:22:14.936Z,99048.83
2018-03-15T18:24:45.095Z,99049.89
2018-03-15T18:27:13.297Z,99053.51
2018-03-15T18:29:41.975Z,99054.66
2018-03-15T18:32:11.658Z,99059.09
2018-03-15T18:34:40.032Z,99059.96
2018-03-15T18:37:09.049Z,99064.64
2018-03-15T18:39:36.891Z,99068.02
2018-03-15T18:42:05.206Z,99076.64
2018-03-15T18:44:34.691Z,99085.89
2018-03-15T18:47:02.945Z,99092.51
2018-03-15T18:49:32.035Z,99095.47
2018-03-15T18:52:00.189Z,99103.56
2018-03-15T18:54:29.082Z,99104.80
2018-03-15T18:56:59.104Z,99094.47
2018-03-15T18:59:26.843Z,99091.88
2018-03-15T19:01:56.695Z,99091.30
2018-03-15T19:04:24.794Z,99099.52
2018-03-15T19:06:52.772Z,99098.56
2018-03-15T19:09:20.757Z,99102.17
2018-03-15T19:11:48.564Z,99091.57
2018-03-15T19:14:16.832Z,99085.91
2018-03-15T19:16:44.990Z,99077.65
2018-03-15T19:19:13.512Z,99072.23
2018-03-15T19:21:41.860Z,99071.03
2018-03-15T19:24:10.432Z,99062.30
2018-03-15T19:26:38.476Z,99058.31
2018-03-15T19:29:07.953Z,99048.69
2018-03-15T19:31:37.956Z,99053.47
2018-03-15T19:34:06.631Z,99059.19
2018-03-15T19:36:35.063Z,99061.50
2018-03-15T19:39:03.454Z,99060.52
2018-03-15T19:41:31.561Z,99070.66
2018-03-15T19:44:00.166Z,99077.59
2018-03-15T19:46:30.374Z,99072.17
2018-03-15T19:48:58.855Z,99079.23
2018-03-15T19:51:27.127Z,99076.80
2018-03-15T19:53:55.816Z,99080.16
2018-03-15T19:56:25.378Z,99086.42
2018-03-15T19:58:55.043Z,99080.16
2018-03-15T20:01:23.411Z,99072.03
2018-03-15T20:03:51.672Z,99072.08
2018-03-15T20:06:19.996Z,99066.61
2018-03-15T20:08:48.233Z,99072.58
2018-03-15T20:11:16.517Z,99078.11
2018-03-15T20:13:44.466Z,99071.77
2018-03-15T20:16:15.820Z,99078.09
2018-03-15T20:18:44.202Z,99085.08
2018-03-15T20:21:12.470Z,99085.90
2018-03-15T20:23:46.389Z,99082.19
2018-03-15T20:26:17.500Z,99090.23
2018-03-15T20:28:45.375Z,99086.44
2018-03-15T20:31:14.145Z,99089.61
2018-03-15T20:33:47.912Z,99090.52
2018-03-15T20:36:17.877Z,99094.88
2018-03-15T20:38:45.763Z,99098.84
2018-03-15T20:41:19.038Z,99100.94
2018-03-15T20:43:46.612Z,99103.45
2018-03-15T20:46:19.633Z,99111.92
2018-03-15T20:48:52.731Z,99105.86
2018-03-15T20:51:21.789Z,99108.98
2018-03-15T20:53:49.396Z,99110.08
2018-03-15T20:56:16.964Z,99114.44
2018-03-15T20:58:44.931Z,99123.25
2018-03-15T21:01:12.676Z,99116.28
2018-03-15T21:03:41.285Z,99123.13
2018-03-15T21:06:08.920Z,99123.38
2018-03-15T21:08:38.916Z,99126.70
2018-03-15T21:11:07.813Z,99122.34
2018-03-15T21:13:35.426Z,99120.81
2018-03-15T21:16:02.990Z,99124.90
2018-03-15T21:18:31.388Z,99130.27
2018-03-15T21:20:58.971Z,99135.80
2018-03-15T21:23:27.817Z,99141.72
2018-03-15T21:25:56.383Z,99139.39
2018-03-15T21:28:24.783Z,99140.47
2018-03-15T21:30:52.388Z,99136.53
2018-03-15T21:33:21.317Z,99138.74
2018-03-15T21:35:49.780Z,99142.84
2018-03-15T21:38:17.396Z,99144.05
2018-03-15T21:40:44.982Z,99134.79
2018-03-15T21:43:13.420Z,99132.13
2018-03-15T21:45:40.967Z,99128.14
2018-03-15T21:48:08.592Z,99112.73
2018-03-15T21:50:37.329Z,99115.45
2018-03-15T21:53:06.483Z,99111.33
2018-03-15T21:55:34.052Z,99112.56
2018-03-15T21:58:02.347Z,99114.23
2018-03-15T22:00:29.946Z,99126.56
2018-03-15T22:02:57.669Z,99124.52
2018-03-15T22:05:25.474Z,99126.77
2018-03-15T22:07:53.364Z,99124.15
2018-03-15T22:10:20.967Z,99128.89
2018-03-15T22:12:48.510Z,99130.78
2018-03-15T22:15:16.082Z,99128.66
2018-03-15T22:17:43.855Z,99134.15
2018-03-15T22:20:11.417Z,99129.86
2018-03-15T22:22:39.165Z,99126.30
2018-03-15T22:25:06.765Z,99120.56
2018-03-15T22:27:34.368Z,99115.12
2018-03-15T22:30:01.961Z,99119.98
2018-03-15T22:32:29.618Z,99120.66
2018-03-15T22:34:57.152Z,99126.64
2018-03-15T22:37:25.262Z,99121.27
2018-03-15T22:39:52.852Z,99119.48
2018-03-15T22:42:20.461Z,99117.07
2018-03-15T22:44:48.071Z,99115.03
2018-03-15T22:47:15.672Z,99115.56
2018-03-15T22:49:43.228Z,99117.16
2018-03-15T22:52:10.840Z,99113.79
2018-03-15T22:54:38.395Z,99110.23
2018-03-15T22:57:05.964Z,99108.71
2018-03-15T22:59:33.573Z,99116.99
2018-03-15T23:02:01.115Z,99103.69
2018-03-15T23:04:29.889Z,99106.48
2018-03-15T23:06:57.483Z,99105.45
2018-03-15T23:09:25.094Z,99107.00
2018-03-15T23:11:52.677Z,99112.86
2018-03-15T23:14:20.239Z,99112.06
2018-03-15T23:16:48.107Z,99115.73
2018-03-15T23:19:15.703Z,99116.42
2018-03-15T23:21:43.271Z,99116.04
2018-03-15T23:24:10.845Z,99112.51
2018-03-15T23:26:39.250Z,99119.00
2018-03-15T23:29:07.479Z,99115.98
2018-03-15T23:31:35.037Z,99110.78
2018-03-15T23:34:02.638Z,99113.22
2018-03-15T23:36:30.222Z,99107.23
2018-03-15T23:38:57.771Z,99106.77
2018-03-15T23:41:25.364Z,99109.91
2018-03-15T23:43:52.977Z,99105.28
2018-03-15T23:46:20.533Z,99104.78
2018-03-15T23:48:48.875Z,99102.05
2018-03-15T23:51:16.478Z,99100.02
2018-03-15T23:53:44.835Z,99096.20
2018-03-15T23:56:13.354Z,99097.69
2018-03-15T23:58:41.403Z,99096.76
